sensor_id;sensor_type;location;lat;lon;timestamp;P1;durP1;ratioP1;P2;durP2;ratioP2
5303;SDS011;2674;49.722;10.892;2023-03-21T00:01:15;5.30;;;3.90;;
5303;SDS011;2674;49.722;10.892;2023-03-21T00:03:41;8.73;;;4.10;;
5303;SDS011;2674;49.722;10.892;2023-03-21T00:06:11;4.13;;;3.30;;
5303;SDS011;2674;49.722;10.892;2023-03-21T00:08:37;3.23;;;3.00;;
5303;SDS011;2674;49.722;10.892;2023-03-21T00:11:05;4.73;;;3.30;;
5303;SDS011;2674;49.722;10.892;2023-03-21T00:13:32;5.10;;;3.43;;
5303;SDS011;2674;49.722;10.892;2023-03-21T00:16:15;6.40;;;4.20;;
5303;SDS011;2674;49.722;10.892;2023-03-21T00:18:45;7.30;;;3.40;;
5303;SDS011;2674;49.722;10.892;2023-03-21T00:21:17;4.57;;;3.20;;
5303;SDS011;2674;49.722;10.892;2023-03-21T00:23:44;4.63;;;3.27;;
5303;SDS011;2674;49.722;10.892;2023-03-21T00:26:12;3.43;;;3.20;;
5303;SDS011;2674;49.722;10.892;2023-03-21T00:28:39;4.93;;;3.73;;
5303;SDS011;2674;49.722;10.892;2023-03-21T00:31:06;8.53;;;4.00;;
5303;SDS011;2674;49.722;10.892;2023-03-21T00:33:33;8.33;;;4.40;;
5303;SDS011;2674;49.722;10.892;2023-03-21T00:36:01;5.13;;;3.93;;
5303;SDS011;2674;49.722;10.892;2023-03-21T00:38:27;4.40;;;3.40;;
5303;SDS011;2674;49.722;10.892;2023-03-21T00:40:52;4.40;;;3.43;;
5303;SDS011;2674;49.722;10.892;2023-03-21T00:43:19;4.13;;;3.40;;
5303;SDS011;2674;49.722;10.892;2023-03-21T00:45:48;5.03;;;3.10;;
5303;SDS011;2674;49.722;10.892;2023-03-21T00:48:15;5.20;;;4.00;;
5303;SDS011;2674;49.722;10.892;2023-03-21T00:50:42;5.93;;;4.23;;
5303;SDS011;2674;49.722;10.892;2023-03-21T00:53:09;7.23;;;3.80;;
5303;SDS011;2674;49.722;10.892;2023-03-21T00:55:35;5.07;;;3.97;;
5303;SDS011;2674;49.722;10.892;2023-03-21T00:58:02;9.20;;;3.63;;
5303;SDS011;2674;49.722;10.892;2023-03-21T01:00:29;4.40;;;4.00;;
5303;SDS011;2674;49.722;10.892;2023-03-21T01:02:57;7.57;;;3.93;;
5303;SDS011;2674;49.722;10.892;2023-03-21T01:05:29;5.80;;;3.70;;
5303;SDS011;2674;49.722;10.892;2023-03-21T01:08:16;4.63;;;3.87;;
5303;SDS011;2674;49.722;10.892;2023-03-21T01:10:44;5.10;;;4.60;;
5303;SDS011;2674;49.722;10.892;2023-03-21T01:13:13;4.80;;;4.23;;
5303;SDS011;2674;49.722;10.892;2023-03-21T01:15:47;9.00;;;5.70;;
5303;SDS011;2674;49.722;10.892;2023-03-21T01:18:18;8.70;;;5.10;;
5303;SDS011;2674;49.722;10.892;2023-03-21T01:20:46;6.13;;;5.53;;
5303;SDS011;2674;49.722;10.892;2023-03-21T01:23:13;10.43;;;6.00;;
5303;SDS011;2674;49.722;10.892;2023-03-21T01:25:40;13.77;;;6.20;;
5303;SDS011;2674;49.722;10.892;2023-03-21T01:28:06;10.43;;;5.70;;
5303;SDS011;2674;49.722;10.892;2023-03-21T01:30:32;6.63;;;5.47;;
5303;SDS011;2674;49.722;10.892;2023-03-21T01:32:58;10.97;;;6.13;;
5303;SDS011;2674;49.722;10.892;2023-03-21T01:35:24;9.17;;;6.03;;
5303;SDS011;2674;49.722;10.892;2023-03-21T01:37:50;6.33;;;5.07;;
5303;SDS011;2674;49.722;10.892;2023-03-21T01:40:19;5.90;;;5.17;;
5303;SDS011;2674;49.722;10.892;2023-03-21T01:42:49;8.77;;;5.60;;
5303;SDS011;2674;49.722;10.892;2023-03-21T01:48:19;5.60;;;4.73;;
5303;SDS011;2674;49.722;10.892;2023-03-21T01:50:47;5.67;;;4.80;;
5303;SDS011;2674;49.722;10.892;2023-03-21T01:53:14;7.00;;;5.40;;
5303;SDS011;2674;49.722;10.892;2023-03-21T01:55:41;7.23;;;5.17;;
5303;SDS011;2674;49.722;10.892;2023-03-21T01:58:07;6.73;;;5.30;;
5303;SDS011;2674;49.722;10.892;2023-03-21T02:00:35;5.73;;;5.13;;
5303;SDS011;2674;49.722;10.892;2023-03-21T02:03:03;8.70;;;5.70;;
5303;SDS011;2674;49.722;10.892;2023-03-21T02:08:24;5.60;;;5.10;;
5303;SDS011;2674;49.722;10.892;2023-03-21T02:10:51;10.23;;;5.63;;
5303;SDS011;2674;49.722;10.892;2023-03-21T02:13:17;7.17;;;5.60;;
5303;SDS011;2674;49.722;10.892;2023-03-21T02:15:45;5.97;;;4.67;;
5303;SDS011;2674;49.722;10.892;2023-03-21T02:18:37;6.37;;;5.73;;
5303;SDS011;2674;49.722;10.892;2023-03-21T02:32:24;6.50;;;5.00;;
5303;SDS011;2674;49.722;10.892;2023-03-21T02:34:59;7.60;;;4.60;;
5303;SDS011;2674;49.722;10.892;2023-03-21T02:37:56;7.27;;;3.93;;
5303;SDS011;2674;49.722;10.892;2023-03-21T02:40:26;5.53;;;4.40;;
5303;SDS011;2674;49.722;10.892;2023-03-21T02:43:00;6.20;;;4.37;;
5303;SDS011;2674;49.722;10.892;2023-03-21T02:48:16;8.13;;;5.03;;
5303;SDS011;2674;49.722;10.892;2023-03-21T02:50:51;10.03;;;4.70;;
5303;SDS011;2674;49.722;10.892;2023-03-21T02:53:19;8.70;;;4.93;;
5303;SDS011;2674;49.722;10.892;2023-03-21T02:55:49;13.53;;;5.70;;
5303;SDS011;2674;49.722;10.892;2023-03-21T02:58:18;14.13;;;5.80;;
5303;SDS011;2674;49.722;10.892;2023-03-21T03:00:47;5.13;;;4.63;;
5303;SDS011;2674;49.722;10.892;2023-03-21T03:03:14;7.23;;;4.80;;
5303;SDS011;2674;49.722;10.892;2023-03-21T03:05:43;12.60;;;5.40;;
5303;SDS011;2674;49.722;10.892;2023-03-21T03:08:16;7.20;;;4.47;;
5303;SDS011;2674;49.722;10.892;2023-03-21T03:19:33;11.50;;;4.93;;
5303;SDS011;2674;49.722;10.892;2023-03-21T03:22:09;5.27;;;4.77;;
5303;SDS011;2674;49.722;10.892;2023-03-21T03:27:12;9.77;;;5.50;;
5303;SDS011;2674;49.722;10.892;2023-03-21T03:29:43;6.50;;;4.60;;
5303;SDS011;2674;49.722;10.892;2023-03-21T03:32:25;13.50;;;4.70;;
5303;SDS011;2674;49.722;10.892;2023-03-21T03:35:00;10.50;;;5.00;;
5303;SDS011;2674;49.722;10.892;2023-03-21T03:37:28;5.50;;;4.90;;
5303;SDS011;2674;49.722;10.892;2023-03-21T03:42:30;5.73;;;4.70;;
5303;SDS011;2674;49.722;10.892;2023-03-21T03:45:00;9.43;;;4.93;;
5303;SDS011;2674;49.722;10.892;2023-03-21T03:47:41;7.47;;;5.20;;
5303;SDS011;2674;49.722;10.892;2023-03-21T03:53:19;11.13;;;4.80;;
5303;SDS011;2674;49.722;10.892;2023-03-21T03:55:54;8.13;;;4.87;;
5303;SDS011;2674;49.722;10.892;2023-03-21T03:58:22;8.20;;;4.70;;
5303;SDS011;2674;49.722;10.892;2023-03-21T04:00:49;5.40;;;4.53;;
5303;SDS011;2674;49.722;10.892;2023-03-21T04:03:16;8.00;;;4.33;;
5303;SDS011;2674;49.722;10.892;2023-03-21T04:05:42;7.73;;;4.60;;
5303;SDS011;2674;49.722;10.892;2023-03-21T04:08:10;8.27;;;4.30;;
5303;SDS011;2674;49.722;10.892;2023-03-21T04:10:38;4.73;;;4.33;;
5303;SDS011;2674;49.722;10.892;2023-03-21T04:13:04;5.23;;;4.37;;
5303;SDS011;2674;49.722;10.892;2023-03-21T04:15:30;5.37;;;4.60;;
5303;SDS011;2674;49.722;10.892;2023-03-21T04:17:56;9.53;;;5.20;;
5303;SDS011;2674;49.722;10.892;2023-03-21T04:20:22;9.47;;;4.60;;
5303;SDS011;2674;49.722;10.892;2023-03-21T04:22:48;13.83;;;5.23;;
5303;SDS011;2674;49.722;10.892;2023-03-21T04:25:14;6.73;;;4.90;;
5303;SDS011;2674;49.722;10.892;2023-03-21T04:27:40;8.10;;;5.23;;
5303;SDS011;2674;49.722;10.892;2023-03-21T04:30:06;7.00;;;4.70;;
5303;SDS011;2674;49.722;10.892;2023-03-21T04:32:33;9.93;;;5.40;;
5303;SDS011;2674;49.722;10.892;2023-03-21T04:35:03;11.00;;;5.40;;
5303;SDS011;2674;49.722;10.892;2023-03-21T04:37:31;11.10;;;4.37;;
5303;SDS011;2674;49.722;10.892;2023-03-21T04:39:58;11.03;;;6.03;;
5303;SDS011;2674;49.722;10.892;2023-03-21T04:42:24;8.30;;;5.43;;
5303;SDS011;2674;49.722;10.892;2023-03-21T04:44:50;7.30;;;4.90;;
5303;SDS011;2674;49.722;10.892;2023-03-21T04:47:16;6.90;;;5.53;;
5303;SDS011;2674;49.722;10.892;2023-03-21T04:49:44;6.83;;;5.10;;
5303;SDS011;2674;49.722;10.892;2023-03-21T04:52:14;8.73;;;6.23;;
5303;SDS011;2674;49.722;10.892;2023-03-21T04:54:40;15.17;;;7.10;;
5303;SDS011;2674;49.722;10.892;2023-03-21T04:57:09;22.47;;;5.90;;
5303;SDS011;2674;49.722;10.892;2023-03-21T04:59:35;7.20;;;5.83;;
5303;SDS011;2674;49.722;10.892;2023-03-21T05:02:01;7.10;;;5.40;;
5303;SDS011;2674;49.722;10.892;2023-03-21T05:04:27;7.20;;;5.00;;
5303;SDS011;2674;49.722;10.892;2023-03-21T05:06:53;9.97;;;5.20;;
5303;SDS011;2674;49.722;10.892;2023-03-21T05:09:20;7.10;;;4.27;;
5303;SDS011;2674;49.722;10.892;2023-03-21T05:11:49;7.03;;;4.07;;
5303;SDS011;2674;49.722;10.892;2023-03-21T05:14:20;4.53;;;4.13;;
5303;SDS011;2674;49.722;10.892;2023-03-21T05:16:48;7.50;;;4.70;;
5303;SDS011;2674;49.722;10.892;2023-03-21T05:19:19;7.90;;;4.10;;
5303;SDS011;2674;49.722;10.892;2023-03-21T05:21:47;7.73;;;4.97;;
5303;SDS011;2674;49.722;10.892;2023-03-21T05:24:14;6.87;;;4.60;;
5303;SDS011;2674;49.722;10.892;2023-03-21T05:26:43;6.40;;;4.30;;
5303;SDS011;2674;49.722;10.892;2023-03-21T05:29:14;5.00;;;4.50;;
5303;SDS011;2674;49.722;10.892;2023-03-21T05:31:42;5.03;;;4.10;;
5303;SDS011;2674;49.722;10.892;2023-03-21T05:34:09;13.63;;;3.97;;
5303;SDS011;2674;49.722;10.892;2023-03-21T05:36:35;8.40;;;5.23;;
5303;SDS011;2674;49.722;10.892;2023-03-21T05:39:01;8.20;;;5.23;;
5303;SDS011;2674;49.722;10.892;2023-03-21T05:41:27;6.23;;;4.93;;
5303;SDS011;2674;49.722;10.892;2023-03-21T05:43:53;7.60;;;4.53;;
5303;SDS011;2674;49.722;10.892;2023-03-21T05:46:19;8.90;;;4.17;;
5303;SDS011;2674;49.722;10.892;2023-03-21T05:48:45;10.47;;;5.30;;
5303;SDS011;2674;49.722;10.892;2023-03-21T05:51:11;9.40;;;4.90;;
5303;SDS011;2674;49.722;10.892;2023-03-21T05:53:37;12.80;;;5.50;;
5303;SDS011;2674;49.722;10.892;2023-03-21T05:56:03;4.23;;;3.80;;
5303;SDS011;2674;49.722;10.892;2023-03-21T05:58:29;7.33;;;5.17;;
5303;SDS011;2674;49.722;10.892;2023-03-21T06:00:55;10.73;;;4.83;;
5303;SDS011;2674;49.722;10.892;2023-03-21T06:03:21;5.93;;;5.30;;
5303;SDS011;2674;49.722;10.892;2023-03-21T06:05:47;7.40;;;6.23;;
5303;SDS011;2674;49.722;10.892;2023-03-21T06:08:13;7.17;;;5.80;;
5303;SDS011;2674;49.722;10.892;2023-03-21T06:10:38;8.17;;;5.80;;
5303;SDS011;2674;49.722;10.892;2023-03-21T06:13:04;11.83;;;6.27;;
5303;SDS011;2674;49.722;10.892;2023-03-21T06:15:30;14.80;;;7.50;;
5303;SDS011;2674;49.722;10.892;2023-03-21T06:17:56;12.07;;;7.33;;
5303;SDS011;2674;49.722;10.892;2023-03-21T06:20:22;10.53;;;5.57;;
5303;SDS011;2674;49.722;10.892;2023-03-21T06:22:48;6.93;;;5.43;;
5303;SDS011;2674;49.722;10.892;2023-03-21T06:25:14;9.87;;;5.70;;
5303;SDS011;2674;49.722;10.892;2023-03-21T06:27:39;11.47;;;6.50;;
5303;SDS011;2674;49.722;10.892;2023-03-21T06:30:06;7.80;;;6.57;;
5303;SDS011;2674;49.722;10.892;2023-03-21T06:32:32;6.57;;;5.30;;
5303;SDS011;2674;49.722;10.892;2023-03-21T06:34:58;7.90;;;6.07;;
5303;SDS011;2674;49.722;10.892;2023-03-21T06:37:24;8.50;;;6.83;;
5303;SDS011;2674;49.722;10.892;2023-03-21T06:39:51;7.53;;;5.80;;
5303;SDS011;2674;49.722;10.892;2023-03-21T06:42:17;15.87;;;6.57;;
5303;SDS011;2674;49.722;10.892;2023-03-21T06:44:43;12.33;;;5.83;;
5303;SDS011;2674;49.722;10.892;2023-03-21T06:47:09;7.80;;;5.63;;
5303;SDS011;2674;49.722;10.892;2023-03-21T06:49:35;10.10;;;6.33;;
5303;SDS011;2674;49.722;10.892;2023-03-21T06:52:00;9.83;;;5.80;;
5303;SDS011;2674;49.722;10.892;2023-03-21T06:54:26;12.00;;;5.83;;
5303;SDS011;2674;49.722;10.892;2023-03-21T06:56:52;13.07;;;6.13;;
5303;SDS011;2674;49.722;10.892;2023-03-21T06:59:19;6.23;;;5.40;;
5303;SDS011;2674;49.722;10.892;2023-03-21T07:01:45;9.27;;;5.67;;
5303;SDS011;2674;49.722;10.892;2023-03-21T07:04:12;11.30;;;5.70;;
5303;SDS011;2674;49.722;10.892;2023-03-21T07:06:38;9.40;;;5.93;;
5303;SDS011;2674;49.722;10.892;2023-03-21T07:09:04;10.23;;;5.53;;
5303;SDS011;2674;49.722;10.892;2023-03-21T07:11:30;10.43;;;5.63;;
5303;SDS011;2674;49.722;10.892;2023-03-21T07:13:56;6.90;;;6.00;;
5303;SDS011;2674;49.722;10.892;2023-03-21T07:16:22;9.10;;;5.60;;
5303;SDS011;2674;49.722;10.892;2023-03-21T07:18:49;8.57;;;6.10;;
5303;SDS011;2674;49.722;10.892;2023-03-21T07:21:15;5.87;;;5.10;;
5303;SDS011;2674;49.722;10.892;2023-03-21T07:23:42;5.47;;;4.50;;
5303;SDS011;2674;49.722;10.892;2023-03-21T07:26:07;8.40;;;4.70;;
5303;SDS011;2674;49.722;10.892;2023-03-21T07:28:33;7.13;;;5.03;;
5303;SDS011;2674;49.722;10.892;2023-03-21T07:31:01;6.00;;;4.57;;
5303;SDS011;2674;49.722;10.892;2023-03-21T07:33:29;7.17;;;5.00;;
5303;SDS011;2674;49.722;10.892;2023-03-21T07:35:56;10.17;;;4.90;;
5303;SDS011;2674;49.722;10.892;2023-03-21T07:38:22;7.13;;;5.27;;
5303;SDS011;2674;49.722;10.892;2023-03-21T07:40:49;7.40;;;5.47;;
5303;SDS011;2674;49.722;10.892;2023-03-21T07:43:16;7.63;;;5.60;;
5303;SDS011;2674;49.722;10.892;2023-03-21T07:45:42;11.33;;;6.87;;
5303;SDS011;2674;49.722;10.892;2023-03-21T07:48:09;10.33;;;6.40;;
5303;SDS011;2674;49.722;10.892;2023-03-21T07:50:39;14.27;;;6.10;;
5303;SDS011;2674;49.722;10.892;2023-03-21T07:53:05;11.43;;;5.10;;
5303;SDS011;2674;49.722;10.892;2023-03-21T07:55:31;8.67;;;5.20;;
5303;SDS011;2674;49.722;10.892;2023-03-21T07:58:00;8.80;;;5.50;;
5303;SDS011;2674;49.722;10.892;2023-03-21T08:00:27;8.57;;;5.50;;
5303;SDS011;2674;49.722;10.892;2023-03-21T08:02:53;18.40;;;6.07;;
5303;SDS011;2674;49.722;10.892;2023-03-21T08:05:21;11.30;;;5.80;;
5303;SDS011;2674;49.722;10.892;2023-03-21T08:07:49;17.53;;;5.60;;
5303;SDS011;2674;49.722;10.892;2023-03-21T08:10:15;10.27;;;5.60;;
5303;SDS011;2674;49.722;10.892;2023-03-21T08:12:42;6.33;;;4.63;;
5303;SDS011;2674;49.722;10.892;2023-03-21T08:15:09;7.30;;;4.90;;
5303;SDS011;2674;49.722;10.892;2023-03-21T08:17:38;10.23;;;6.03;;
5303;SDS011;2674;49.722;10.892;2023-03-21T08:20:05;12.20;;;7.10;;
5303;SDS011;2674;49.722;10.892;2023-03-21T08:22:33;11.30;;;4.70;;
5303;SDS011;2674;49.722;10.892;2023-03-21T08:25:00;9.43;;;4.97;;
5303;SDS011;2674;49.722;10.892;2023-03-21T08:27:28;10.33;;;5.20;;
5303;SDS011;2674;49.722;10.892;2023-03-21T08:29:53;8.93;;;4.83;;
5303;SDS011;2674;49.722;10.892;2023-03-21T08:32:19;7.70;;;4.43;;
5303;SDS011;2674;49.722;10.892;2023-03-21T08:34:52;5.20;;;4.00;;
5303;SDS011;2674;49.722;10.892;2023-03-21T08:37:18;7.80;;;4.43;;
5303;SDS011;2674;49.722;10.892;2023-03-21T08:39:44;6.63;;;4.40;;
5303;SDS011;2674;49.722;10.892;2023-03-21T08:42:09;5.83;;;3.93;;
5303;SDS011;2674;49.722;10.892;2023-03-21T08:44:35;6.70;;;3.73;;
5303;SDS011;2674;49.722;10.892;2023-03-21T08:47:03;13.30;;;4.70;;
5303;SDS011;2674;49.722;10.892;2023-03-21T08:49:29;7.70;;;3.77;;
5303;SDS011;2674;49.722;10.892;2023-03-21T08:51:55;9.03;;;4.70;;
5303;SDS011;2674;49.722;10.892;2023-03-21T08:54:21;7.13;;;4.30;;
5303;SDS011;2674;49.722;10.892;2023-03-21T08:56:47;10.57;;;4.60;;
5303;SDS011;2674;49.722;10.892;2023-03-21T08:59:13;8.00;;;4.90;;
5303;SDS011;2674;49.722;10.892;2023-03-21T09:01:40;6.80;;;4.90;;
5303;SDS011;2674;49.722;10.892;2023-03-21T09:04:06;5.13;;;4.63;;
5303;SDS011;2674;49.722;10.892;2023-03-21T09:06:35;4.43;;;4.03;;
5303;SDS011;2674;49.722;10.892;2023-03-21T09:09:02;10.17;;;4.90;;
5303;SDS011;2674;49.722;10.892;2023-03-21T09:11:31;6.57;;;4.33;;
5303;SDS011;2674;49.722;10.892;2023-03-21T09:13:57;10.87;;;4.83;;
5303;SDS011;2674;49.722;10.892;2023-03-21T09:16:23;7.03;;;4.90;;
5303;SDS011;2674;49.722;10.892;2023-03-21T09:18:49;6.70;;;5.50;;
5303;SDS011;2674;49.722;10.892;2023-03-21T09:21:21;7.67;;;5.00;;
5303;SDS011;2674;49.722;10.892;2023-03-21T09:23:49;12.47;;;4.90;;
5303;SDS011;2674;49.722;10.892;2023-03-21T09:26:17;10.77;;;5.10;;
5303;SDS011;2674;49.722;10.892;2023-03-21T09:28:44;9.90;;;4.27;;
5303;SDS011;2674;49.722;10.892;2023-03-21T09:31:11;7.97;;;5.00;;
5303;SDS011;2674;49.722;10.892;2023-03-21T09:33:41;10.13;;;4.20;;
5303;SDS011;2674;49.722;10.892;2023-03-21T09:36:08;5.63;;;4.63;;
5303;SDS011;2674;49.722;10.892;2023-03-21T09:38:43;6.63;;;4.40;;
5303;SDS011;2674;49.722;10.892;2023-03-21T09:49:00;7.33;;;4.97;;
5303;SDS011;2674;49.722;10.892;2023-03-21T09:51:42;6.03;;;4.53;;
5303;SDS011;2674;49.722;10.892;2023-03-21T09:54:12;8.83;;;3.80;;
5303;SDS011;2674;49.722;10.892;2023-03-21T09:56:43;7.13;;;4.40;;
5303;SDS011;2674;49.722;10.892;2023-03-21T09:59:53;7.57;;;4.10;;
5303;SDS011;2674;49.722;10.892;2023-03-21T10:02:32;10.37;;;3.47;;
5303;SDS011;2674;49.722;10.892;2023-03-21T10:05:05;8.80;;;4.77;;
5303;SDS011;2674;49.722;10.892;2023-03-21T10:07:45;10.73;;;6.23;;
5303;SDS011;2674;49.722;10.892;2023-03-21T10:10:22;6.40;;;3.83;;
5303;SDS011;2674;49.722;10.892;2023-03-21T10:12:53;5.67;;;3.77;;
5303;SDS011;2674;49.722;10.892;2023-03-21T10:15:22;12.23;;;4.70;;
5303;SDS011;2674;49.722;10.892;2023-03-21T10:17:52;5.20;;;3.70;;
5303;SDS011;2674;49.722;10.892;2023-03-21T10:20:28;10.80;;;5.30;;
5303;SDS011;2674;49.722;10.892;2023-03-21T10:23:00;5.33;;;3.50;;
5303;SDS011;2674;49.722;10.892;2023-03-21T10:25:30;9.33;;;4.23;;
5303;SDS011;2674;49.722;10.892;2023-03-21T10:28:08;9.30;;;3.60;;
5303;SDS011;2674;49.722;10.892;2023-03-21T10:30:53;6.57;;;4.20;;
5303;SDS011;2674;49.722;10.892;2023-03-21T10:33:34;7.17;;;4.50;;
5303;SDS011;2674;49.722;10.892;2023-03-21T10:38:34;6.87;;;3.60;;
5303;SDS011;2674;49.722;10.892;2023-03-21T10:41:05;8.30;;;4.50;;
5303;SDS011;2674;49.722;10.892;2023-03-21T10:43:32;6.57;;;3.60;;
5303;SDS011;2674;49.722;10.892;2023-03-21T10:46:18;7.03;;;4.87;;
5303;SDS011;2674;49.722;10.892;2023-03-21T10:48:49;9.93;;;3.90;;
5303;SDS011;2674;49.722;10.892;2023-03-21T10:51:21;9.23;;;3.60;;
5303;SDS011;2674;49.722;10.892;2023-03-21T10:53:55;10.57;;;4.40;;
5303;SDS011;2674;49.722;10.892;2023-03-21T10:56:30;6.10;;;3.83;;
5303;SDS011;2674;49.722;10.892;2023-03-21T10:59:00;6.60;;;4.00;;
5303;SDS011;2674;49.722;10.892;2023-03-21T11:01:40;3.93;;;3.53;;
5303;SDS011;2674;49.722;10.892;2023-03-21T11:04:17;9.43;;;4.53;;
5303;SDS011;2674;49.722;10.892;2023-03-21T11:06:50;9.80;;;4.03;;
5303;SDS011;2674;49.722;10.892;2023-03-21T11:09:21;5.73;;;3.97;;
5303;SDS011;2674;49.722;10.892;2023-03-21T11:17:06;6.60;;;3.10;;
5303;SDS011;2674;49.722;10.892;2023-03-21T11:19:46;6.20;;;4.00;;
5303;SDS011;2674;49.722;10.892;2023-03-21T11:22:13;5.40;;;3.10;;
5303;SDS011;2674;49.722;10.892;2023-03-21T11:24:40;9.03;;;3.67;;
5303;SDS011;2674;49.722;10.892;2023-03-21T11:27:08;6.33;;;3.27;;
5303;SDS011;2674;49.722;10.892;2023-03-21T11:29:44;4.07;;;3.67;;
5303;SDS011;2674;49.722;10.892;2023-03-21T11:37:27;6.10;;;3.73;;
5303;SDS011;2674;49.722;10.892;2023-03-21T11:42:39;8.87;;;5.70;;
5303;SDS011;2674;49.722;10.892;2023-03-21T11:45:14;6.47;;;3.20;;
5303;SDS011;2674;49.722;10.892;2023-03-21T11:47:41;6.00;;;4.13;;
5303;SDS011;2674;49.722;10.892;2023-03-21T11:50:13;4.33;;;2.70;;
5303;SDS011;2674;49.722;10.892;2023-03-21T11:52:42;4.67;;;3.37;;
5303;SDS011;2674;49.722;10.892;2023-03-21T11:55:21;8.53;;;3.40;;
5303;SDS011;2674;49.722;10.892;2023-03-21T12:04:02;5.37;;;2.70;;
5303;SDS011;2674;49.722;10.892;2023-03-21T12:12:40;5.80;;;3.40;;
5303;SDS011;2674;49.722;10.892;2023-03-21T12:21:17;3.17;;;2.87;;
5303;SDS011;2674;49.722;10.892;2023-03-21T12:26:56;9.93;;;3.73;;
5303;SDS011;2674;49.722;10.892;2023-03-21T12:48:50;4.20;;;2.90;;
5303;SDS011;2674;49.722;10.892;2023-03-21T12:51:45;4.83;;;2.70;;
5303;SDS011;2674;49.722;10.892;2023-03-21T12:54:22;4.87;;;3.23;;
5303;SDS011;2674;49.722;10.892;2023-03-21T12:59:28;2.30;;;2.00;;
5303;SDS011;2674;49.722;10.892;2023-03-21T13:04:56;4.80;;;2.50;;
5303;SDS011;2674;49.722;10.892;2023-03-21T13:07:31;3.90;;;2.50;;
5303;SDS011;2674;49.722;10.892;2023-03-21T13:10:02;3.20;;;2.20;;
5303;SDS011;2674;49.722;10.892;2023-03-21T13:12:58;2.83;;;2.30;;
5303;SDS011;2674;49.722;10.892;2023-03-21T13:21:11;7.83;;;2.47;;
5303;SDS011;2674;49.722;10.892;2023-03-21T13:23:45;2.67;;;2.43;;
5303;SDS011;2674;49.722;10.892;2023-03-21T13:26:33;3.50;;;2.30;;
5303;SDS011;2674;49.722;10.892;2023-03-21T13:29:14;2.23;;;2.00;;
5303;SDS011;2674;49.722;10.892;2023-03-21T13:31:51;5.53;;;2.60;;
5303;SDS011;2674;49.722;10.892;2023-03-21T13:34:22;4.60;;;2.77;;
5303;SDS011;2674;49.722;10.892;2023-03-21T13:36:49;3.43;;;2.30;;
5303;SDS011;2674;49.722;10.892;2023-03-21T13:39:18;4.27;;;2.77;;
5303;SDS011;2674;49.722;10.892;2023-03-21T13:41:48;4.17;;;2.70;;
5303;SDS011;2674;49.722;10.892;2023-03-21T13:44:21;3.03;;;2.70;;
5303;SDS011;2674;49.722;10.892;2023-03-21T13:49:34;3.27;;;2.70;;
5303;SDS011;2674;49.722;10.892;2023-03-21T13:54:55;3.90;;;3.00;;
5303;SDS011;2674;49.722;10.892;2023-03-21T13:57:45;10.23;;;3.13;;
5303;SDS011;2674;49.722;10.892;2023-03-21T14:00:16;5.47;;;2.60;;
5303;SDS011;2674;49.722;10.892;2023-03-21T14:05:21;5.47;;;3.20;;
5303;SDS011;2674;49.722;10.892;2023-03-21T14:07:50;4.40;;;2.80;;
5303;SDS011;2674;49.722;10.892;2023-03-21T14:10:33;5.50;;;2.53;;
5303;SDS011;2674;49.722;10.892;2023-03-21T14:12:59;5.03;;;3.00;;
5303;SDS011;2674;49.722;10.892;2023-03-21T14:15:31;4.70;;;2.47;;
5303;SDS011;2674;49.722;10.892;2023-03-21T14:18:04;3.77;;;2.67;;
5303;SDS011;2674;49.722;10.892;2023-03-21T14:20:35;2.90;;;2.30;;
5303;SDS011;2674;49.722;10.892;2023-03-21T14:23:05;4.30;;;2.80;;
5303;SDS011;2674;49.722;10.892;2023-03-21T14:25:41;9.23;;;3.43;;
5303;SDS011;2674;49.722;10.892;2023-03-21T14:30:50;2.90;;;2.50;;
5303;SDS011;2674;49.722;10.892;2023-03-21T14:33:24;3.87;;;2.70;;
5303;SDS011;2674;49.722;10.892;2023-03-21T14:36:04;5.50;;;3.10;;
5303;SDS011;2674;49.722;10.892;2023-03-21T14:38:36;6.07;;;2.97;;
5303;SDS011;2674;49.722;10.892;2023-03-21T14:41:04;3.00;;;2.77;;
5303;SDS011;2674;49.722;10.892;2023-03-21T14:43:59;9.47;;;2.90;;
5303;SDS011;2674;49.722;10.892;2023-03-21T14:47:05;5.60;;;2.77;;
5303;SDS011;2674;49.722;10.892;2023-03-21T14:49:35;7.60;;;2.80;;
5303;SDS011;2674;49.722;10.892;2023-03-21T14:52:03;4.07;;;2.80;;
5303;SDS011;2674;49.722;10.892;2023-03-21T14:54:32;5.30;;;3.07;;
5303;SDS011;2674;49.722;10.892;2023-03-21T14:56:59;5.70;;;2.67;;
5303;SDS011;2674;49.722;10.892;2023-03-21T14:59:37;7.00;;;3.60;;
5303;SDS011;2674;49.722;10.892;2023-03-21T15:02:11;5.87;;;3.33;;
5303;SDS011;2674;49.722;10.892;2023-03-21T15:04:45;5.27;;;3.20;;
5303;SDS011;2674;49.722;10.892;2023-03-21T15:07:33;4.97;;;3.10;;
5303;SDS011;2674;49.722;10.892;2023-03-21T15:10:22;5.27;;;2.83;;
5303;SDS011;2674;49.722;10.892;2023-03-21T15:12:55;12.27;;;4.00;;
5303;SDS011;2674;49.722;10.892;2023-03-21T15:15:24;3.73;;;3.00;;
5303;SDS011;2674;49.722;10.892;2023-03-21T15:17:51;6.93;;;5.00;;
5303;SDS011;2674;49.722;10.892;2023-03-21T15:20:20;5.20;;;3.50;;
5303;SDS011;2674;49.722;10.892;2023-03-21T15:22:51;4.77;;;4.27;;
5303;SDS011;2674;49.722;10.892;2023-03-21T15:25:28;5.67;;;3.60;;
5303;SDS011;2674;49.722;10.892;2023-03-21T15:27:57;6.93;;;4.43;;
5303;SDS011;2674;49.722;10.892;2023-03-21T15:30:28;11.83;;;5.40;;
5303;SDS011;2674;49.722;10.892;2023-03-21T15:32:56;6.30;;;4.50;;
5303;SDS011;2674;49.722;10.892;2023-03-21T15:35:28;7.20;;;4.17;;
5303;SDS011;2674;49.722;10.892;2023-03-21T15:38:02;5.20;;;3.93;;
5303;SDS011;2674;49.722;10.892;2023-03-21T15:40:29;5.87;;;3.40;;
5303;SDS011;2674;49.722;10.892;2023-03-21T15:43:16;10.50;;;4.50;;
5303;SDS011;2674;49.722;10.892;2023-03-21T15:45:50;8.73;;;3.17;;
5303;SDS011;2674;49.722;10.892;2023-03-21T15:48:25;7.83;;;2.93;;
5303;SDS011;2674;49.722;10.892;2023-03-21T15:51:00;4.27;;;2.93;;
5303;SDS011;2674;49.722;10.892;2023-03-21T15:53:33;16.53;;;3.13;;
5303;SDS011;2674;49.722;10.892;2023-03-21T15:56:01;6.50;;;3.63;;
5303;SDS011;2674;49.722;10.892;2023-03-21T15:58:34;8.80;;;4.17;;
5303;SDS011;2674;49.722;10.892;2023-03-21T16:01:05;6.10;;;3.60;;
5303;SDS011;2674;49.722;10.892;2023-03-21T16:03:47;6.30;;;3.03;;
5303;SDS011;2674;49.722;10.892;2023-03-21T16:06:20;5.13;;;2.97;;
5303;SDS011;2674;49.722;10.892;2023-03-21T16:08:50;5.93;;;3.23;;
5303;SDS011;2674;49.722;10.892;2023-03-21T16:11:26;2.67;;;2.47;;
5303;SDS011;2674;49.722;10.892;2023-03-21T16:14:00;5.27;;;2.23;;
5303;SDS011;2674;49.722;10.892;2023-03-21T16:16:27;5.17;;;3.10;;
5303;SDS011;2674;49.722;10.892;2023-03-21T16:18:57;6.87;;;3.10;;
5303;SDS011;2674;49.722;10.892;2023-03-21T16:21:28;6.00;;;3.40;;
5303;SDS011;2674;49.722;10.892;2023-03-21T16:23:55;5.77;;;3.17;;
5303;SDS011;2674;49.722;10.892;2023-03-21T16:26:26;4.93;;;3.13;;
5303;SDS011;2674;49.722;10.892;2023-03-21T16:28:54;6.13;;;2.93;;
5303;SDS011;2674;49.722;10.892;2023-03-21T16:31:30;3.97;;;3.00;;
5303;SDS011;2674;49.722;10.892;2023-03-21T16:33:58;4.83;;;3.30;;
5303;SDS011;2674;49.722;10.892;2023-03-21T16:36:27;3.90;;;3.13;;
5303;SDS011;2674;49.722;10.892;2023-03-21T16:38:55;5.80;;;3.57;;
5303;SDS011;2674;49.722;10.892;2023-03-21T16:41:22;3.33;;;3.07;;
5303;SDS011;2674;49.722;10.892;2023-03-21T16:43:50;5.10;;;3.20;;
5303;SDS011;2674;49.722;10.892;2023-03-21T16:48:50;7.10;;;3.47;;
5303;SDS011;2674;49.722;10.892;2023-03-21T16:51:22;4.13;;;2.60;;
5303;SDS011;2674;49.722;10.892;2023-03-21T16:53:54;8.80;;;3.13;;
5303;SDS011;2674;49.722;10.892;2023-03-21T16:56:40;5.80;;;2.73;;
5303;SDS011;2674;49.722;10.892;2023-03-21T16:59:09;4.17;;;3.00;;
5303;SDS011;2674;49.722;10.892;2023-03-21T17:01:37;5.77;;;3.53;;
5303;SDS011;2674;49.722;10.892;2023-03-21T17:04:05;5.37;;;3.57;;
5303;SDS011;2674;49.722;10.892;2023-03-21T17:06:31;3.03;;;2.70;;
5303;SDS011;2674;49.722;10.892;2023-03-21T17:09:04;9.63;;;3.40;;
5303;SDS011;2674;49.722;10.892;2023-03-21T17:11:30;4.47;;;3.90;;
5303;SDS011;2674;49.722;10.892;2023-03-21T17:14:00;9.53;;;5.63;;
5303;SDS011;2674;49.722;10.892;2023-03-21T17:16:27;7.43;;;3.50;;
5303;SDS011;2674;49.722;10.892;2023-03-21T17:18:53;6.00;;;3.60;;
5303;SDS011;2674;49.722;10.892;2023-03-21T17:21:21;3.93;;;3.53;;